River & Lake Conditions

Stages:
  • Latest Observation

    Normal Stage: 10.27 ft3.1 m

    Flow: 135 kcfs
    Impacts: Above 8.7 to 9.2 feet, the Corps will raise the gates out of the water, allowing for open river conditions. This corresponds to a discharge of approximately 110,000 cfs.
  • Stages

Stage Date Flow
8.30 ft2.53 mForecast 08/06/2015 01:00 am 105.000 kcfs
8.30 ft2.53 mForecast 08/05/2015 07:00 pm 105.000 kcfs
8.40 ft2.56 mForecast 08/05/2015 01:00 pm 107.000 kcfs
8.40 ft2.56 mForecast 08/05/2015 07:00 am 107.000 kcfs
8.50 ft2.59 mForecast 08/05/2015 01:00 am 108.000 kcfs
8.50 ft2.59 mForecast 08/04/2015 07:00 pm 108.000 kcfs
8.60 ft2.62 mForecast 08/04/2015 01:00 pm 110.000 kcfs
8.60 ft2.62 mForecast 08/04/2015 07:00 am 110.000 kcfs
8.60 ft2.62 mForecast 08/04/2015 01:00 am 110.000 kcfs
8.70 ft2.65 mForecast 08/03/2015 07:00 pm 111.000 kcfs
8.70 ft2.65 mForecast 08/03/2015 01:00 pm 111.000 kcfs
8.80 ft2.68 mForecast 08/03/2015 07:00 am 113.000 kcfs
8.80 ft2.68 mForecast 08/03/2015 01:00 am 113.000 kcfs
8.90 ft2.71 mForecast 08/02/2015 07:00 pm 114.000 kcfs
9.00 ft2.74 mForecast 08/02/2015 01:00 pm 116.000 kcfs
9.00 ft2.74 mForecast 08/02/2015 07:00 am 116.000 kcfs
9.10 ft2.77 mForecast 08/02/2015 01:00 am 117.000 kcfs
9.20 ft2.80 mForecast 08/01/2015 07:00 pm 119.000 kcfs
9.30 ft2.83 mForecast 08/01/2015 01:00 pm 120.000 kcfs
9.50 ft2.90 mForecast 08/01/2015 07:00 am 123.000 kcfs
9.70 ft2.96 mForecast 08/01/2015 01:00 am 126.000 kcfs
9.80 ft2.99 mForecast 07/31/2015 07:00 pm 128.000 kcfs
9.90 ft3.02 mForecast 07/31/2015 01:00 pm 130.000 kcfs
10.10 ft3.08 mForecast 07/31/2015 07:00 am 133.000 kcfs
10.20 ft3.11 mForecast 07/31/2015 01:00 am 134.000 kcfs
10.20 ft3.11 mForecast 07/30/2015 07:00 pm 134.000 kcfs
10.30 ft3.14 mForecast 07/30/2015 01:00 pm 136.000 kcfs
10.40 ft3.17 mForecast 07/30/2015 07:00 am 137.000 kcfs
10.40 ft3.17 mForecast 07/30/2015 01:00 am 137.000 kcfs
10.40 ft3.17 mForecast 07/29/2015 07:00 pm 137.000 kcfs
10.30 ft3.14 mForecast 07/29/2015 01:00 pm 136.000 kcfs
10.27 ft3.14 m 07/29/2015 09:30 am 135.000 kcfs
10.26 ft3.14 m 07/29/2015 09:20 am 135.000 kcfs
10.20 ft3.14 m 07/29/2015 09:10 am 134.000 kcfs
10.27 ft3.14 m 07/29/2015 09:00 am 135.000 kcfs
10.27 ft3.14 m 07/29/2015 08:50 am 135.000 kcfs
10.26 ft3.14 m 07/29/2015 08:40 am 135.000 kcfs
10.28 ft3.14 m 07/29/2015 08:30 am 135.000 kcfs
10.27 ft3.14 m 07/29/2015 08:20 am 135.000 kcfs
10.26 ft3.14 m 07/29/2015 08:10 am 135.000 kcfs
10.23 ft3.14 m 07/29/2015 08:00 am 134.000 kcfs
10.26 ft3.14 m 07/29/2015 07:50 am 135.000 kcfs
10.26 ft3.14 m 07/29/2015 07:40 am 135.000 kcfs
10.26 ft3.14 m 07/29/2015 07:30 am 135.000 kcfs
10.26 ft3.14 m 07/29/2015 07:20 am 135.000 kcfs
10.25 ft3.14 m 07/29/2015 07:10 am 135.000 kcfs
10.24 ft3.14 m 07/29/2015 07:00 am 135.000 kcfs
10.25 ft3.14 m 07/29/2015 06:50 am 135.000 kcfs
10.24 ft3.14 m 07/29/2015 06:40 am 135.000 kcfs
10.24 ft3.14 m 07/29/2015 06:30 am 135.000 kcfs
10.23 ft3.14 m 07/29/2015 06:20 am 134.000 kcfs
10.24 ft3.14 m 07/29/2015 06:10 am 135.000 kcfs
10.24 ft3.14 m 07/29/2015 06:00 am 135.000 kcfs
10.24 ft3.14 m 07/29/2015 05:50 am 135.000 kcfs
10.24 ft3.14 m 07/29/2015 05:40 am 135.000 kcfs
10.24 ft3.14 m 07/29/2015 05:30 am 135.000 kcfs
10.23 ft3.14 m 07/29/2015 05:20 am 134.000 kcfs
10.23 ft3.14 m 07/29/2015 05:10 am 134.000 kcfs
10.23 ft3.14 m 07/29/2015 05:00 am 134.000 kcfs
10.23 ft3.14 m 07/29/2015 04:50 am 134.000 kcfs
10.23 ft3.14 m 07/29/2015 04:40 am 134.000 kcfs
9.97 ft3.14 m 07/29/2015 04:30 am 131.000 kcfs